CZN44A LIRF-LFPG
Flight info
| Callsign | CZN44A |
|---|---|
| Flight time | N/A |
| Altitude | 34000 |
| Route | NEMBO DCT GOVGO DCT AOSTA DCT ORSUD DCT MOLUS DCT UNKIR DCT GIVRI DCT TINIL |
| Aircraft | A320/M-SDE3FGHIRWY/LB1 |
Departure
| Time | 2026-05-01 13:17 |
|---|---|
| Airport | Rome–Fiumicino Leonardo da Vinci International Airport (LIRF) |
Arrival
| Time | N/A |
|---|---|
| Airport | Charles de Gaulle International Airport (LFPG) |
| Time | Latitude | Longitude | Altitude | Speed | Heading |
|---|---|---|---|---|---|
| 2026-05-01 12:40 | 41.79405 | 12.24749 | 15 ft | 0 kts | 346° |
| 2026-05-01 13:07 | 41.79326 | 12.24678 | 15 ft | 0 kts | 78° |
| 2026-05-01 13:07 | 41.79328 | 12.24680 | 14 ft | 1 kts | 54° |
| 2026-05-01 13:07 | 41.79334 | 12.24676 | 14 ft | 0 kts | 345° |
| 2026-05-01 13:08 | 41.79334 | 12.24668 | 14 ft | 3 kts | 284° |
| 2026-05-01 13:08 | 41.79333 | 12.24664 | 15 ft | 0 kts | 264° |
| 2026-05-01 13:08 | 41.79331 | 12.24662 | 15 ft | 1 kts | 252° |
| 2026-05-01 13:09 | 41.79331 | 12.24660 | 15 ft | 0 kts | 250° |
| 2026-05-01 13:09 | 41.79318 | 12.24610 | 14 ft | 12 kts | 254° |
| 2026-05-01 13:09 | 41.79300 | 12.24501 | 14 ft | 11 kts | 257° |
| 2026-05-01 13:10 | 41.79318 | 12.24402 | 15 ft | 12 kts | 303° |
| 2026-05-01 13:10 | 41.79344 | 12.24295 | 14 ft | 13 kts | 261° |
| 2026-05-01 13:10 | 41.79309 | 12.24172 | 14 ft | 15 kts | 248° |
| 2026-05-01 13:10 | 41.79269 | 12.24035 | 14 ft | 16 kts | 249° |
| 2026-05-01 13:11 | 41.79284 | 12.23915 | 15 ft | 12 kts | 334° |
| 2026-05-01 13:11 | 41.79372 | 12.23879 | 16 ft | 15 kts | 342° |
| 2026-05-01 13:11 | 41.79493 | 12.23828 | 14 ft | 21 kts | 342° |
| 2026-05-01 13:11 | 41.79648 | 12.23762 | 14 ft | 25 kts | 342° |
| 2026-05-01 13:12 | 41.79814 | 12.23693 | 14 ft | 21 kts | 341° |
| 2026-05-01 13:12 | 41.79917 | 12.23751 | 14 ft | 19 kts | 66° |
| 2026-05-01 13:12 | 41.79965 | 12.23924 | 13 ft | 20 kts | 69° |
| 2026-05-01 13:12 | 41.79991 | 12.24084 | 14 ft | 18 kts | 75° |
| 2026-05-01 13:13 | 41.80036 | 12.24249 | 14 ft | 20 kts | 69° |
| 2026-05-01 13:13 | 41.80084 | 12.24426 | 14 ft | 19 kts | 70° |
| 2026-05-01 13:13 | 41.80129 | 12.24589 | 16 ft | 19 kts | 70° |
| 2026-05-01 13:13 | 41.80177 | 12.24763 | 14 ft | 20 kts | 70° |
| 2026-05-01 13:14 | 41.80207 | 12.24956 | 14 ft | 22 kts | 91° |
| 2026-05-01 13:14 | 41.80230 | 12.25157 | 15 ft | 22 kts | 70° |
| 2026-05-01 13:14 | 41.80279 | 12.25336 | 16 ft | 18 kts | 70° |
| 2026-05-01 13:14 | 41.80325 | 12.25498 | 16 ft | 19 kts | 70° |
| 2026-05-01 13:15 | 41.80374 | 12.25675 | 15 ft | 21 kts | 69° |
| 2026-05-01 13:15 | 41.80425 | 12.25864 | 15 ft | 19 kts | 71° |
| 2026-05-01 13:15 | 41.80467 | 12.26020 | 16 ft | 18 kts | 69° |
| 2026-05-01 13:15 | 41.80537 | 12.26152 | 18 ft | 18 kts | 9° |
| 2026-05-01 13:16 | 41.80658 | 12.26108 | 17 ft | 19 kts | 340° |
| 2026-05-01 13:16 | 41.80711 | 12.26034 | 18 ft | 23 kts | 267° |
| 2026-05-01 13:16 | 41.80543 | 12.25422 | 18 ft | 114 kts | 249° |
| 2026-05-01 13:17 | 41.79288 | 12.20820 | 1562 ft | 186 kts | 267° |
| 2026-05-01 13:17 | 41.79247 | 12.19049 | 2341 ft | 199 kts | 272° |
| 2026-05-01 13:18 | 41.79172 | 12.14950 | 3149 ft | 244 kts | 271° |
| 2026-05-01 13:18 | 41.79115 | 12.12562 | 3643 ft | 265 kts | 270° |
| 2026-05-01 13:18 | 41.79051 | 12.10093 | 4433 ft | 272 kts | 270° |
| 2026-05-01 13:18 | 41.79008 | 12.07548 | 5332 ft | 275 kts | 271° |
| 2026-05-01 13:19 | 41.79000 | 12.04961 | 6208 ft | 280 kts | 272° |
| 2026-05-01 13:19 | 41.79004 | 12.02318 | 6999 ft | 287 kts | 273° |
| 2026-05-01 13:19 | 41.79010 | 11.96903 | 8661 ft | 294 kts | 273° |
| 2026-05-01 13:20 | 41.79010 | 11.94147 | 9511 ft | 297 kts | 273° |
| 2026-05-01 13:20 | 41.79004 | 11.91358 | 10319 ft | 301 kts | 274° |
| 2026-05-01 13:20 | 41.78997 | 11.88486 | 10757 ft | 319 kts | 274° |
| 2026-05-01 13:21 | 41.78985 | 11.82110 | 11142 ft | 365 kts | 274° |
| 2026-05-01 13:21 | 41.78975 | 11.78639 | 11584 ft | 377 kts | 273° |
| 2026-05-01 13:21 | 41.78959 | 11.75096 | 12240 ft | 383 kts | 274° |
| 2026-05-01 13:21 | 41.78935 | 11.71507 | 12940 ft | 387 kts | 274° |
| 2026-05-01 13:22 | 41.78908 | 11.67882 | 13658 ft | 392 kts | 274° |
| 2026-05-01 13:22 | 41.78883 | 11.64252 | 14324 ft | 396 kts | 275° |
| 2026-05-01 13:22 | 41.78951 | 11.60560 | 14970 ft | 396 kts | 282° |
| 2026-05-01 13:22 | 41.79490 | 11.56961 | 15640 ft | 393 kts | 293° |
| 2026-05-01 13:23 | 41.80506 | 11.53587 | 16313 ft | 388 kts | 304° |
| 2026-05-01 13:23 | 41.81939 | 11.50548 | 17004 ft | 384 kts | 314° |
| 2026-05-01 13:23 | 41.83676 | 11.47832 | 17704 ft | 385 kts | 319° |
| 2026-05-01 13:23 | 41.85457 | 11.45124 | 18362 ft | 389 kts | 319° |
| 2026-05-01 13:24 | 41.87250 | 11.42391 | 18975 ft | 392 kts | 319° |
| 2026-05-01 13:24 | 41.89058 | 11.39632 | 19582 ft | 395 kts | 319° |
| 2026-05-01 13:24 | 41.90876 | 11.36851 | 20195 ft | 398 kts | 319° |
| 2026-05-01 13:25 | 41.94546 | 11.31218 | 21375 ft | 403 kts | 319° |
| 2026-05-01 13:25 | 41.96401 | 11.28371 | 21894 ft | 405 kts | 318° |
| 2026-05-01 13:25 | 41.98264 | 11.25512 | 22451 ft | 408 kts | 318° |
| 2026-05-01 13:25 | 42.00136 | 11.22631 | 22974 ft | 411 kts | 318° |
| 2026-05-01 13:26 | 42.02020 | 11.19728 | 23488 ft | 413 kts | 318° |
| 2026-05-01 13:26 | 42.03891 | 11.16846 | 23970 ft | 416 kts | 318° |
| 2026-05-01 13:26 | 42.05798 | 11.13904 | 24404 ft | 418 kts | 318° |
| 2026-05-01 13:26 | 42.07716 | 11.10941 | 24835 ft | 421 kts | 318° |
| 2026-05-01 13:27 | 42.09648 | 11.07958 | 25183 ft | 425 kts | 318° |
| 2026-05-01 13:27 | 42.11595 | 11.04950 | 25571 ft | 427 kts | 317° |
| 2026-05-01 13:27 | 42.15499 | 10.98894 | 26560 ft | 426 kts | 317° |
| 2026-05-01 13:28 | 42.19360 | 10.92872 | 27724 ft | 422 kts | 317° |
| 2026-05-01 13:28 | 42.21277 | 10.89879 | 28307 ft | 420 kts | 317° |
| 2026-05-01 13:29 | 42.25083 | 10.83950 | 29469 ft | 416 kts | 317° |
| 2026-05-01 13:29 | 42.29146 | 10.78555 | 30568 ft | 403 kts | 329° |
| 2026-05-01 13:30 | 42.39222 | 10.72735 | 32392 ft | 393 kts | 341° |
| 2026-05-01 13:31 | 42.44346 | 10.70197 | 33299 ft | 391 kts | 340° |
| 2026-05-01 13:31 | 42.51993 | 10.66395 | 34249 ft | 395 kts | 339° |
| 2026-05-01 13:32 | 42.56346 | 10.64231 | 34264 ft | 405 kts | 340° |
| 2026-05-01 13:33 | 42.69676 | 10.57594 | 34261 ft | 408 kts | 340° |
| 2026-05-01 13:34 | 42.80401 | 10.52223 | 34264 ft | 414 kts | 340° |
| 2026-05-01 13:35 | 42.88520 | 10.48162 | 34266 ft | 414 kts | 340° |
| 2026-05-01 13:36 | 42.96648 | 10.44076 | 34272 ft | 415 kts | 340° |
| 2026-05-01 13:36 | 43.04775 | 10.39960 | 34281 ft | 415 kts | 340° |
| 2026-05-01 13:37 | 43.10189 | 10.37221 | 34279 ft | 415 kts | 340° |
| 2026-05-01 13:37 | 43.15569 | 10.34477 | 34281 ft | 415 kts | 338° |
| 2026-05-01 13:38 | 43.20506 | 10.30347 | 34257 ft | 420 kts | 324° |
| 2026-05-01 13:38 | 43.22806 | 10.27862 | 34263 ft | 421 kts | 324° |
| 2026-05-01 13:39 | 43.27420 | 10.22878 | 34263 ft | 422 kts | 324° |
| 2026-05-01 13:39 | 43.32048 | 10.17877 | 34274 ft | 425 kts | 324° |
| 2026-05-01 13:40 | 43.36710 | 10.12832 | 34291 ft | 427 kts | 324° |
| 2026-05-01 13:40 | 43.41374 | 10.07775 | 34293 ft | 427 kts | 324° |
| 2026-05-01 13:41 | 43.46045 | 10.02708 | 34290 ft | 428 kts | 324° |
| 2026-05-01 13:41 | 43.50712 | 9.97622 | 34303 ft | 428 kts | 324° |
| 2026-05-01 13:42 | 43.55351 | 9.92551 | 34311 ft | 428 kts | 324° |
| 2026-05-01 13:42 | 43.60024 | 9.87436 | 34314 ft | 429 kts | 324° |
| 2026-05-01 13:43 | 43.64704 | 9.82310 | 34267 ft | 430 kts | 323° |
| 2026-05-01 13:43 | 43.69394 | 9.77156 | 34279 ft | 432 kts | 323° |
| 2026-05-01 13:44 | 43.74094 | 9.71979 | 34288 ft | 432 kts | 323° |
| 2026-05-01 13:44 | 43.78801 | 9.66794 | 34296 ft | 433 kts | 323° |
| 2026-05-01 13:45 | 43.83505 | 9.61590 | 34301 ft | 433 kts | 323° |
| 2026-05-01 13:45 | 43.88220 | 9.56379 | 34301 ft | 433 kts | 323° |
| 2026-05-01 13:46 | 43.92934 | 9.51154 | 34305 ft | 434 kts | 323° |
| 2026-05-01 13:46 | 43.97612 | 9.45937 | 34282 ft | 434 kts | 322° |
| 2026-05-01 13:47 | 44.02319 | 9.40684 | 34295 ft | 434 kts | 322° |
| 2026-05-01 13:47 | 44.07029 | 9.35423 | 34299 ft | 434 kts | 322° |
| 2026-05-01 13:48 | 44.11735 | 9.30164 | 34302 ft | 434 kts | 322° |
| 2026-05-01 13:48 | 44.16441 | 9.24893 | 34306 ft | 434 kts | 322° |
| 2026-05-01 13:49 | 44.21147 | 9.19601 | 34312 ft | 434 kts | 322° |
| 2026-05-01 13:49 | 44.25848 | 9.14301 | 34312 ft | 434 kts | 322° |
| 2026-05-01 13:50 | 44.30552 | 9.08993 | 34281 ft | 435 kts | 322° |
| 2026-05-01 13:50 | 44.35256 | 9.03669 | 34302 ft | 435 kts | 322° |
| 2026-05-01 13:51 | 44.39963 | 8.98335 | 34304 ft | 436 kts | 322° |
| 2026-05-01 13:51 | 44.44670 | 8.92995 | 34309 ft | 435 kts | 322° |
| 2026-05-01 13:52 | 44.49373 | 8.87645 | 34314 ft | 435 kts | 322° |
| 2026-05-01 13:52 | 44.54064 | 8.82287 | 34319 ft | 435 kts | 322° |
| 2026-05-01 13:53 | 44.58729 | 8.76953 | 34325 ft | 435 kts | 322° |
| 2026-05-01 13:53 | 44.65762 | 8.68900 | 34315 ft | 435 kts | 321° |
| 2026-05-01 13:54 | 44.70452 | 8.63505 | 34328 ft | 436 kts | 321° |
| 2026-05-01 13:54 | 44.75154 | 8.58080 | 34334 ft | 437 kts | 321° |
| 2026-05-01 13:55 | 44.79850 | 8.52641 | 34347 ft | 437 kts | 321° |
| 2026-05-01 13:55 | 44.84553 | 8.47199 | 34354 ft | 438 kts | 321° |
| 2026-05-01 13:56 | 44.89229 | 8.41781 | 34355 ft | 438 kts | 321° |
| 2026-05-01 13:56 | 44.93939 | 8.36319 | 34340 ft | 439 kts | 321° |
| 2026-05-01 13:57 | 44.98660 | 8.30820 | 34338 ft | 440 kts | 321° |
| 2026-05-01 13:57 | 45.03389 | 8.25307 | 34339 ft | 441 kts | 321° |
| 2026-05-01 13:58 | 45.08119 | 8.19782 | 34343 ft | 441 kts | 321° |
| 2026-05-01 13:58 | 45.12853 | 8.14231 | 34348 ft | 442 kts | 321° |
| 2026-05-01 13:59 | 45.17589 | 8.08672 | 34346 ft | 442 kts | 320° |
| 2026-05-01 13:59 | 45.22329 | 8.03089 | 34349 ft | 444 kts | 320° |
| 2026-05-01 14:00 | 45.27081 | 7.97477 | 34356 ft | 444 kts | 320° |
| 2026-05-01 14:00 | 45.31841 | 7.91850 | 34363 ft | 445 kts | 320° |
| 2026-05-01 14:01 | 45.36601 | 7.86204 | 34368 ft | 446 kts | 320° |
| 2026-05-01 14:01 | 45.41333 | 7.80584 | 34377 ft | 446 kts | 320° |
| 2026-05-01 14:02 | 45.46093 | 7.74910 | 34367 ft | 446 kts | 319° |
| 2026-05-01 14:02 | 45.50855 | 7.69224 | 34359 ft | 447 kts | 319° |
| 2026-05-01 14:03 | 45.55622 | 7.63523 | 34351 ft | 447 kts | 319° |
| 2026-05-01 14:03 | 45.60389 | 7.57811 | 34351 ft | 448 kts | 319° |
| 2026-05-01 14:04 | 45.65158 | 7.52073 | 34346 ft | 448 kts | 319° |
| 2026-05-01 14:04 | 45.69119 | 7.47292 | 34344 ft | 448 kts | 319° |
| 2026-05-01 14:05 | 45.74701 | 7.40559 | 34303 ft | 449 kts | 319° |
| 2026-05-01 14:05 | 45.79479 | 7.34791 | 34305 ft | 449 kts | 320° |
| 2026-05-01 14:06 | 45.84436 | 7.29403 | 34311 ft | 450 kts | 324° |
| 2026-05-01 14:06 | 45.89597 | 7.24325 | 34311 ft | 450 kts | 325° |
| 2026-05-01 14:07 | 45.94763 | 7.19225 | 34307 ft | 450 kts | 324° |
| 2026-05-01 14:08 | 46.02424 | 7.11408 | 34248 ft | 450 kts | 323° |
| 2026-05-01 14:08 | 46.07517 | 7.06150 | 34246 ft | 451 kts | 323° |
| 2026-05-01 14:09 | 46.12623 | 7.00890 | 34248 ft | 451 kts | 323° |
| 2026-05-01 14:09 | 46.17708 | 6.95646 | 34250 ft | 451 kts | 323° |
| 2026-05-01 14:10 | 46.22821 | 6.90367 | 34252 ft | 452 kts | 323° |
| 2026-05-01 14:10 | 46.27938 | 6.85070 | 34263 ft | 453 kts | 323° |
| 2026-05-01 14:11 | 46.33057 | 6.79758 | 34270 ft | 453 kts | 323° |
| 2026-05-01 14:11 | 46.40741 | 6.71755 | 34261 ft | 454 kts | 322° |
| 2026-05-01 14:12 | 46.45222 | 6.65381 | 34257 ft | 452 kts | 305° |
| 2026-05-01 14:12 | 46.48474 | 6.57609 | 34263 ft | 451 kts | 298° |
| 2026-05-01 14:13 | 46.51072 | 6.51046 | 34265 ft | 451 kts | 298° |
| 2026-05-01 14:13 | 46.54727 | 6.41796 | 34289 ft | 452 kts | 298° |
| 2026-05-01 14:14 | 46.57843 | 6.33866 | 34289 ft | 451 kts | 298° |
| 2026-05-01 14:14 | 46.60945 | 6.25929 | 34292 ft | 451 kts | 298° |
| 2026-05-01 14:15 | 46.64047 | 6.17992 | 34287 ft | 451 kts | 298° |
| 2026-05-01 14:15 | 46.67146 | 6.10059 | 34275 ft | 451 kts | 298° |
| 2026-05-01 14:16 | 46.70210 | 6.02169 | 34291 ft | 449 kts | 298° |
| 2026-05-01 14:16 | 46.73280 | 5.94251 | 34278 ft | 448 kts | 298° |
| 2026-05-01 14:17 | 46.76334 | 5.86318 | 34281 ft | 447 kts | 297° |
| 2026-05-01 14:17 | 46.79394 | 5.78413 | 34265 ft | 447 kts | 301° |
| 2026-05-01 14:18 | 46.83505 | 5.71665 | 34258 ft | 451 kts | 320° |
| 2026-05-01 14:18 | 46.87972 | 5.67567 | 34242 ft | 454 kts | 329° |
| 2026-05-01 14:19 | 46.94421 | 5.62400 | 34224 ft | 455 kts | 329° |
| 2026-05-01 14:19 | 46.99965 | 5.57934 | 34221 ft | 455 kts | 329° |
| 2026-05-01 14:20 | 47.08301 | 5.51206 | 34208 ft | 458 kts | 329° |
| 2026-05-01 14:21 | 47.13891 | 5.46683 | 34199 ft | 460 kts | 329° |
| 2026-05-01 14:21 | 47.19512 | 5.42114 | 34201 ft | 462 kts | 329° |
| 2026-05-01 14:22 | 47.27010 | 5.36017 | 34214 ft | 463 kts | 329° |
| 2026-05-01 14:22 | 47.32664 | 5.31402 | 34199 ft | 466 kts | 329° |
| 2026-05-01 14:23 | 47.38344 | 5.26757 | 34201 ft | 467 kts | 329° |
| 2026-05-01 14:23 | 47.44042 | 5.22094 | 34207 ft | 468 kts | 329° |
| 2026-05-01 14:24 | 47.49736 | 5.17414 | 34211 ft | 469 kts | 329° |
| 2026-05-01 14:24 | 47.55459 | 5.12702 | 34203 ft | 471 kts | 329° |
| 2026-05-01 14:25 | 47.61184 | 5.07958 | 34206 ft | 467 kts | 329° |
| 2026-05-01 14:25 | 47.66779 | 5.03273 | 34219 ft | 462 kts | 329° |
| 2026-05-01 14:26 | 47.75199 | 4.96192 | 34215 ft | 466 kts | 329° |
| 2026-05-01 14:27 | 47.80839 | 4.91414 | 34215 ft | 466 kts | 329° |
| 2026-05-01 14:27 | 47.86471 | 4.86634 | 34214 ft | 466 kts | 329° |
| 2026-05-01 14:28 | 47.94922 | 4.79421 | 34208 ft | 468 kts | 329° |
| 2026-05-01 14:28 | 48.00567 | 4.74553 | 34208 ft | 469 kts | 329° |
| 2026-05-01 14:29 | 48.06211 | 4.69676 | 34208 ft | 469 kts | 329° |
| 2026-05-01 14:30 | 48.17508 | 4.59853 | 34219 ft | 473 kts | 329° |
| 2026-05-01 14:31 | 48.26021 | 4.52356 | 34228 ft | 473 kts | 329° |
| 2026-05-01 14:31 | 48.31702 | 4.47346 | 34227 ft | 473 kts | 329° |
| 2026-05-01 14:32 | 48.37385 | 4.42319 | 34215 ft | 473 kts | 329° |
| 2026-05-01 14:32 | 48.43043 | 4.37278 | 34216 ft | 472 kts | 329° |
| 2026-05-01 14:33 | 48.48702 | 4.32226 | 34217 ft | 472 kts | 329° |
| 2026-05-01 14:33 | 48.54374 | 4.27142 | 34241 ft | 476 kts | 328° |
| 2026-05-01 14:34 | 48.60069 | 4.22012 | 34227 ft | 476 kts | 328° |
| 2026-05-01 14:34 | 48.65741 | 4.16868 | 34225 ft | 475 kts | 328° |
| 2026-05-01 14:35 | 48.71417 | 4.11712 | 34224 ft | 476 kts | 328° |
| 2026-05-01 14:35 | 48.77086 | 4.06550 | 34224 ft | 476 kts | 328° |
| 2026-05-01 14:36 | 48.82758 | 4.01375 | 34225 ft | 476 kts | 328° |
| 2026-05-01 14:36 | 48.88400 | 3.96224 | 34228 ft | 476 kts | 328° |
| 2026-05-01 14:37 | 48.94074 | 3.91035 | 34233 ft | 476 kts | 328° |
| 2026-05-01 14:37 | 48.99755 | 3.85831 | 34232 ft | 476 kts | 328° |
| 2026-05-01 14:38 | 49.05419 | 3.80633 | 34224 ft | 474 kts | 328° |
| 2026-05-01 14:38 | 49.11064 | 3.75446 | 34225 ft | 474 kts | 328° |
| 2026-05-01 14:39 | 49.16711 | 3.70247 | 34221 ft | 474 kts | 328° |
| 2026-05-01 14:39 | 49.22355 | 3.65043 | 34223 ft | 474 kts | 328° |
| 2026-05-01 14:40 | 49.27992 | 3.59852 | 34207 ft | 472 kts | 328° |
| 2026-05-01 14:40 | 49.33619 | 3.54682 | 34222 ft | 472 kts | 328° |
| 2026-05-01 14:41 | 49.39217 | 3.49466 | 34226 ft | 475 kts | 328° |
| 2026-05-01 14:41 | 49.44865 | 3.44188 | 34226 ft | 475 kts | 328° |
| 2026-05-01 14:42 | 49.50507 | 3.38913 | 34214 ft | 474 kts | 328° |
| 2026-05-01 14:42 | 49.56137 | 3.33662 | 34213 ft | 473 kts | 328° |
| 2026-05-01 14:43 | 49.61763 | 3.28404 | 34216 ft | 473 kts | 328° |
| 2026-05-01 14:43 | 49.67388 | 3.23138 | 34210 ft | 473 kts | 328° |
| 2026-05-01 14:44 | 49.73014 | 3.17876 | 34197 ft | 471 kts | 328° |
| 2026-05-01 14:44 | 49.81441 | 3.09991 | 34216 ft | 473 kts | 328° |
| 2026-05-01 14:45 | 49.89886 | 3.02036 | 34215 ft | 474 kts | 328° |
| 2026-05-01 14:46 | 49.95491 | 2.96756 | 34213 ft | 472 kts | 328° |
| 2026-05-01 14:46 | 50.03921 | 2.88851 | 34206 ft | 471 kts | 328° |
| 2026-05-01 14:47 | 50.09531 | 2.83579 | 34206 ft | 471 kts | 328° |
| 2026-05-01 14:48 | 50.17944 | 2.75663 | 34202 ft | 470 kts | 328° |
| 2026-05-01 14:48 | 50.26325 | 2.67798 | 34213 ft | 471 kts | 328° |
| 2026-05-01 14:49 | 50.37558 | 2.57219 | 34206 ft | 471 kts | 328° |
| 2026-05-01 14:50 | 50.48777 | 2.46672 | 34202 ft | 469 kts | 328° |
| 2026-05-01 14:51 | 50.57177 | 2.38761 | 34201 ft | 469 kts | 328° |
| 2026-05-01 14:52 | 50.65584 | 2.30841 | 34205 ft | 469 kts | 328° |
| 2026-05-01 14:53 | 50.74000 | 2.22972 | 34204 ft | 469 kts | 328° |
| 2026-05-01 14:53 | 50.79580 | 2.17736 | 34202 ft | 468 kts | 328° |
| 2026-05-01 14:54 | 50.85189 | 2.12462 | 34199 ft | 468 kts | 328° |
| 2026-05-01 14:54 | 50.90786 | 2.07213 | 34194 ft | 467 kts | 328° |
| 2026-05-01 14:55 | 50.96384 | 2.01968 | 34194 ft | 467 kts | 328° |
| 2026-05-01 14:55 | 51.01973 | 1.96721 | 34193 ft | 467 kts | 328° |
| 2026-05-01 14:56 | 51.07557 | 1.91468 | 34195 ft | 467 kts | 328° |
| 2026-05-01 14:56 | 51.13160 | 1.86191 | 34221 ft | 469 kts | 328° |
| 2026-05-01 14:57 | 51.18785 | 1.80889 | 34221 ft | 470 kts | 328° |
| 2026-05-01 14:57 | 51.27227 | 1.72909 | 34221 ft | 470 kts | 328° |
| 2026-05-01 14:58 | 51.32856 | 1.67573 | 34216 ft | 470 kts | 327° |
| 2026-05-01 14:58 | 51.38444 | 1.62322 | 34215 ft | 468 kts | 328° |
| 2026-05-01 14:59 | 51.44064 | 1.57040 | 34213 ft | 468 kts | 328° |
| 2026-05-01 14:59 | 51.49676 | 1.51755 | 34210 ft | 468 kts | 328° |
| 2026-05-01 15:00 | 51.58107 | 1.43797 | 34222 ft | 469 kts | 328° |
| 2026-05-01 15:01 | 51.63765 | 1.38490 | 34221 ft | 470 kts | 328° |
| 2026-05-01 15:01 | 51.69424 | 1.33168 | 34221 ft | 471 kts | 328° |
| 2026-05-01 15:02 | 51.75079 | 1.27838 | 34221 ft | 471 kts | 328° |
| 2026-05-01 15:02 | 51.80700 | 1.22528 | 34217 ft | 471 kts | 327° |
| 2026-05-01 15:03 | 51.86361 | 1.17227 | 34217 ft | 470 kts | 327° |
| 2026-05-01 15:03 | 51.92022 | 1.11926 | 34217 ft | 470 kts | 327° |
| 2026-05-01 15:04 | 51.97681 | 1.06618 | 34220 ft | 470 kts | 327° |
| 2026-05-01 15:04 | 52.03339 | 1.01295 | 34217 ft | 470 kts | 327° |
| 2026-05-01 15:05 | 52.08996 | 0.95978 | 34236 ft | 470 kts | 327° |
| 2026-05-01 15:05 | 52.14658 | 0.90638 | 34230 ft | 470 kts | 327° |
| 2026-05-01 15:06 | 52.20295 | 0.85311 | 34223 ft | 470 kts | 327° |
| 2026-05-01 15:06 | 52.25957 | 0.79951 | 34215 ft | 470 kts | 327° |
| 2026-05-01 15:07 | 52.31629 | 0.74592 | 34208 ft | 471 kts | 327° |
| 2026-05-01 15:07 | 52.37308 | 0.69246 | 34204 ft | 471 kts | 327° |
| 2026-05-01 15:08 | 52.42989 | 0.63886 | 34207 ft | 471 kts | 327° |
| 2026-05-01 15:08 | 52.47709 | 0.59422 | 34207 ft | 471 kts | 327° |
| 2026-05-01 15:09 | 52.53390 | 0.54040 | 34191 ft | 471 kts | 327° |
| 2026-05-01 15:09 | 52.59084 | 0.48674 | 34208 ft | 471 kts | 327° |
| 2026-05-01 15:10 | 52.65672 | 0.42434 | 34211 ft | 470 kts | 327° |
| 2026-05-01 15:10 | 52.73256 | 0.35228 | 34212 ft | 470 kts | 327° |
| 2026-05-01 15:11 | 52.81719 | 0.27199 | 34219 ft | 469 kts | 327° |
| 2026-05-01 15:12 | 52.87387 | 0.21837 | 34222 ft | 469 kts | 327° |
| 2026-05-01 15:12 | 52.95888 | 0.13774 | 34214 ft | 469 kts | 327° |
| 2026-05-01 15:14 | 53.10058 | 0.00343 | 34217 ft | 468 kts | 327° |
| 2026-05-01 15:14 | 53.18494 | -0.07740 | 34238 ft | 464 kts | 327° |
| 2026-05-01 15:15 | 53.29686 | -0.18531 | 34243 ft | 464 kts | 327° |
| 2026-05-01 15:16 | 53.40832 | -0.29283 | 34239 ft | 464 kts | 327° |
| 2026-05-01 15:18 | 53.54807 | -0.42832 | 34243 ft | 464 kts | 327° |
| 2026-05-01 15:19 | 53.65986 | -0.53725 | 34239 ft | 464 kts | 327° |
| 2026-05-01 15:19 | 53.74370 | -0.61928 | 34249 ft | 464 kts | 327° |
| 2026-05-01 15:20 | 53.82742 | -0.70147 | 34237 ft | 464 kts | 327° |
| 2026-05-01 15:21 | 53.88294 | -0.75612 | 34235 ft | 464 kts | 327° |
| 2026-05-01 15:21 | 53.93880 | -0.81122 | 34235 ft | 464 kts | 327° |
| 2026-05-01 15:22 | 54.02259 | -0.89412 | 34232 ft | 465 kts | 327° |
| 2026-05-01 15:22 | 54.07848 | -0.94961 | 34233 ft | 465 kts | 327° |
| 2026-05-01 15:23 | 54.13437 | -1.00522 | 34230 ft | 465 kts | 327° |
| 2026-05-01 15:23 | 54.18985 | -1.06054 | 34240 ft | 465 kts | 327° |
| 2026-05-01 15:24 | 54.24550 | -1.11645 | 34251 ft | 463 kts | 327° |
| 2026-05-01 15:24 | 54.30100 | -1.17248 | 34250 ft | 463 kts | 327° |
| 2026-05-01 15:25 | 54.35660 | -1.22873 | 34249 ft | 463 kts | 327° |
| 2026-05-01 15:25 | 54.41208 | -1.28501 | 34248 ft | 463 kts | 327° |
| 2026-05-01 15:26 | 54.46754 | -1.34139 | 34246 ft | 463 kts | 326° |
| 2026-05-01 15:26 | 54.52296 | -1.39791 | 34256 ft | 463 kts | 326° |
| 2026-05-01 15:27 | 54.57832 | -1.45459 | 34255 ft | 463 kts | 326° |
| 2026-05-01 15:28 | 54.66106 | -1.53957 | 34251 ft | 463 kts | 326° |
| 2026-05-01 15:28 | 54.71648 | -1.59665 | 34246 ft | 463 kts | 326° |
| 2026-05-01 15:29 | 54.79920 | -1.68259 | 34253 ft | 461 kts | 326° |
| 2026-05-01 15:30 | 54.90909 | -1.79782 | 34265 ft | 461 kts | 326° |
| 2026-05-01 15:31 | 55.07335 | -1.97120 | 34261 ft | 461 kts | 326° |
| 2026-05-01 15:32 | 55.18312 | -2.08791 | 34266 ft | 461 kts | 326° |
| 2026-05-01 15:34 | 55.34759 | -2.26405 | 34274 ft | 462 kts | 326° |